Clarke City, Canada
Current Conditions -  °F | °C
As of 2:00 PM on Tuesday 21 Oct 2014 (Local Time) from CYZV Reporting Station
Overcast Overcast  
Wind Chill: 41°   Ceiling: 5400
Heat Index: 46°   Visibility: 30mi
Dew Point: 32°   Wind: 12mph
Humidity: 57%   Direction: 340°NNW
Pressure: 30.1"   Gusts: NA
Location:  50.2°N, 66.63°W
Report Text: CYZV 211800Z 34010KT 290V030 30SM SCT037 OVC054 OVC110 OVC250 08/M00 A3010 RMK CU3SC5AC1CI1 AC TR CI TR SLP194
Loading
Personal Weather Stations






























Interactive Weather Map
Tropical Storm Tracking
New forecast layout! Learn more

10-Day Weather Forecast

Advertisements
Track Severe Weather on mobile